sensor_id;sensor_type;location;lat;lon;timestamp;P1;durP1;ratioP1;P2;durP2;ratioP2
76953;SDS011;65893;51.698;-0.292;2024-03-17T00:00:37;12.05;;;3.90;;
76953;SDS011;65893;51.698;-0.292;2024-03-17T00:03:05;11.82;;;3.83;;
76953;SDS011;65893;51.698;-0.292;2024-03-17T00:05:34;14.60;;;4.05;;
76953;SDS011;65893;51.698;-0.292;2024-03-17T00:08:03;9.55;;;4.10;;
76953;SDS011;65893;51.698;-0.292;2024-03-17T00:10:33;7.35;;;3.28;;
76953;SDS011;65893;51.698;-0.292;2024-03-17T00:12:59;13.85;;;3.72;;
76953;SDS011;65893;51.698;-0.292;2024-03-17T00:15:26;12.02;;;4.32;;
76953;SDS011;65893;51.698;-0.292;2024-03-17T00:17:53;11.93;;;4.60;;
76953;SDS011;65893;51.698;-0.292;2024-03-17T00:20:19;10.45;;;4.20;;
76953;SDS011;65893;51.698;-0.292;2024-03-17T00:22:48;12.02;;;4.32;;
76953;SDS011;65893;51.698;-0.292;2024-03-17T00:25:14;14.02;;;4.82;;
76953;SDS011;65893;51.698;-0.292;2024-03-17T00:27:41;12.15;;;4.63;;
76953;SDS011;65893;51.698;-0.292;2024-03-17T00:30:10;8.98;;;4.00;;
76953;SDS011;65893;51.698;-0.292;2024-03-17T00:32:41;11.88;;;4.20;;
76953;SDS011;65893;51.698;-0.292;2024-03-17T00:35:09;9.85;;;4.28;;
76953;SDS011;65893;51.698;-0.292;2024-03-17T00:37:38;13.05;;;5.03;;
76953;SDS011;65893;51.698;-0.292;2024-03-17T00:40:05;10.45;;;4.90;;
76953;SDS011;65893;51.698;-0.292;2024-03-17T00:42:31;11.20;;;4.13;;
76953;SDS011;65893;51.698;-0.292;2024-03-17T00:44:58;9.77;;;3.97;;
76953;SDS011;65893;51.698;-0.292;2024-03-17T00:47:28;11.75;;;4.63;;
76953;SDS011;65893;51.698;-0.292;2024-03-17T00:49:55;12.25;;;4.97;;
76953;SDS011;65893;51.698;-0.292;2024-03-17T00:52:21;11.55;;;4.45;;
76953;SDS011;65893;51.698;-0.292;2024-03-17T00:54:47;9.50;;;4.97;;
76953;SDS011;65893;51.698;-0.292;2024-03-17T00:57:14;23.05;;;6.03;;
76953;SDS011;65893;51.698;-0.292;2024-03-17T00:59:43;11.88;;;5.18;;
76953;SDS011;65893;51.698;-0.292;2024-03-17T01:02:14;9.70;;;4.43;;
76953;SDS011;65893;51.698;-0.292;2024-03-17T01:04:41;14.27;;;4.65;;
76953;SDS011;65893;51.698;-0.292;2024-03-17T01:07:08;10.50;;;4.78;;
76953;SDS011;65893;51.698;-0.292;2024-03-17T01:09:34;12.57;;;4.70;;
76953;SDS011;65893;51.698;-0.292;2024-03-17T01:12:00;13.15;;;4.75;;
76953;SDS011;65893;51.698;-0.292;2024-03-17T01:14:27;10.95;;;5.50;;
76953;SDS011;65893;51.698;-0.292;2024-03-17T01:16:53;16.70;;;5.80;;
76953;SDS011;65893;51.698;-0.292;2024-03-17T01:19:19;12.70;;;4.97;;
76953;SDS011;65893;51.698;-0.292;2024-03-17T01:21:46;8.43;;;4.35;;
76953;SDS011;65893;51.698;-0.292;2024-03-17T01:24:12;11.20;;;4.60;;
76953;SDS011;65893;51.698;-0.292;2024-03-17T01:26:38;14.00;;;5.93;;
76953;SDS011;65893;51.698;-0.292;2024-03-17T01:29:04;10.43;;;4.85;;
76953;SDS011;65893;51.698;-0.292;2024-03-17T01:31:30;11.00;;;5.18;;
76953;SDS011;65893;51.698;-0.292;2024-03-17T01:33:57;13.10;;;5.57;;
76953;SDS011;65893;51.698;-0.292;2024-03-17T01:36:23;15.15;;;5.38;;
76953;SDS011;65893;51.698;-0.292;2024-03-17T01:38:49;10.57;;;5.15;;
76953;SDS011;65893;51.698;-0.292;2024-03-17T01:41:16;13.20;;;5.53;;
76953;SDS011;65893;51.698;-0.292;2024-03-17T01:43:42;10.48;;;5.18;;
76953;SDS011;65893;51.698;-0.292;2024-03-17T01:46:10;11.98;;;5.60;;
76953;SDS011;65893;51.698;-0.292;2024-03-17T01:48:37;13.00;;;5.05;;
76953;SDS011;65893;51.698;-0.292;2024-03-17T01:51:04;14.88;;;6.03;;
76953;SDS011;65893;51.698;-0.292;2024-03-17T01:53:30;15.05;;;5.55;;
76953;SDS011;65893;51.698;-0.292;2024-03-17T01:55:57;12.55;;;5.93;;
76953;SDS011;65893;51.698;-0.292;2024-03-17T01:58:25;13.32;;;6.05;;
76953;SDS011;65893;51.698;-0.292;2024-03-17T02:00:51;11.57;;;5.63;;
76953;SDS011;65893;51.698;-0.292;2024-03-17T02:03:17;15.77;;;6.43;;
76953;SDS011;65893;51.698;-0.292;2024-03-17T02:05:44;16.60;;;6.25;;
76953;SDS011;65893;51.698;-0.292;2024-03-17T02:08:10;13.60;;;5.00;;
76953;SDS011;65893;51.698;-0.292;2024-03-17T02:10:37;15.13;;;6.40;;
76953;SDS011;65893;51.698;-0.292;2024-03-17T02:13:03;12.82;;;5.97;;
76953;SDS011;65893;51.698;-0.292;2024-03-17T02:15:32;15.98;;;6.65;;
76953;SDS011;65893;51.698;-0.292;2024-03-17T02:17:59;12.77;;;5.25;;
76953;SDS011;65893;51.698;-0.292;2024-03-17T02:20:25;16.73;;;7.07;;
76953;SDS011;65893;51.698;-0.292;2024-03-17T02:23:10;15.25;;;6.40;;
76953;SDS011;65893;51.698;-0.292;2024-03-17T02:25:37;17.75;;;7.05;;
76953;SDS011;65893;51.698;-0.292;2024-03-17T02:28:05;16.05;;;7.10;;
76953;SDS011;65893;51.698;-0.292;2024-03-17T02:30:31;15.90;;;7.20;;
76953;SDS011;65893;51.698;-0.292;2024-03-17T02:32:57;19.42;;;7.53;;
76953;SDS011;65893;51.698;-0.292;2024-03-17T02:35:25;19.00;;;7.45;;
76953;SDS011;65893;51.698;-0.292;2024-03-17T02:37:51;14.73;;;7.13;;
76953;SDS011;65893;51.698;-0.292;2024-03-17T02:40:17;14.05;;;6.78;;
76953;SDS011;65893;51.698;-0.292;2024-03-17T02:42:44;20.38;;;7.72;;
76953;SDS011;65893;51.698;-0.292;2024-03-17T02:45:10;24.77;;;8.50;;
76953;SDS011;65893;51.698;-0.292;2024-03-17T02:47:37;17.30;;;8.02;;
76953;SDS011;65893;51.698;-0.292;2024-03-17T02:50:04;24.45;;;8.75;;
76953;SDS011;65893;51.698;-0.292;2024-03-17T02:52:30;14.98;;;7.30;;
76953;SDS011;65893;51.698;-0.292;2024-03-17T02:54:56;19.42;;;7.95;;
76953;SDS011;65893;51.698;-0.292;2024-03-17T02:57:22;20.20;;;7.75;;
76953;SDS011;65893;51.698;-0.292;2024-03-17T02:59:55;23.33;;;9.90;;
76953;SDS011;65893;51.698;-0.292;2024-03-17T03:02:21;18.98;;;8.65;;
76953;SDS011;65893;51.698;-0.292;2024-03-17T03:04:47;23.00;;;9.23;;
76953;SDS011;65893;51.698;-0.292;2024-03-17T03:07:13;19.50;;;9.50;;
76953;SDS011;65893;51.698;-0.292;2024-03-17T03:09:41;21.75;;;8.43;;
76953;SDS011;65893;51.698;-0.292;2024-03-17T03:12:07;30.00;;;9.80;;
76953;SDS011;65893;51.698;-0.292;2024-03-17T03:14:33;21.30;;;9.30;;
76953;SDS011;65893;51.698;-0.292;2024-03-17T03:16:59;23.38;;;10.57;;
76953;SDS011;65893;51.698;-0.292;2024-03-17T03:19:28;24.70;;;9.90;;
76953;SDS011;65893;51.698;-0.292;2024-03-17T03:21:55;22.13;;;9.75;;
76953;SDS011;65893;51.698;-0.292;2024-03-17T03:24:21;22.20;;;10.23;;
76953;SDS011;65893;51.698;-0.292;2024-03-17T03:26:47;25.25;;;9.98;;
76953;SDS011;65893;51.698;-0.292;2024-03-17T03:29:13;36.65;;;10.15;;
76953;SDS011;65893;51.698;-0.292;2024-03-17T03:31:39;22.83;;;10.10;;
76953;SDS011;65893;51.698;-0.292;2024-03-17T03:34:06;27.90;;;11.05;;
76953;SDS011;65893;51.698;-0.292;2024-03-17T03:36:37;23.58;;;10.07;;
76953;SDS011;65893;51.698;-0.292;2024-03-17T03:39:03;28.33;;;10.80;;
76953;SDS011;65893;51.698;-0.292;2024-03-17T03:41:36;24.58;;;10.27;;
76953;SDS011;65893;51.698;-0.292;2024-03-17T03:44:02;23.10;;;9.90;;
76953;SDS011;65893;51.698;-0.292;2024-03-17T03:46:28;23.80;;;9.30;;
76953;SDS011;65893;51.698;-0.292;2024-03-17T03:48:55;25.63;;;11.02;;
76953;SDS011;65893;51.698;-0.292;2024-03-17T03:51:22;27.60;;;9.98;;
76953;SDS011;65893;51.698;-0.292;2024-03-17T03:53:50;22.70;;;9.57;;
76953;SDS011;65893;51.698;-0.292;2024-03-17T03:56:18;30.45;;;11.48;;
76953;SDS011;65893;51.698;-0.292;2024-03-17T03:58:46;24.42;;;9.68;;
76953;SDS011;65893;51.698;-0.292;2024-03-17T04:01:14;27.15;;;10.13;;
76953;SDS011;65893;51.698;-0.292;2024-03-17T04:03:46;17.58;;;8.25;;
76953;SDS011;65893;51.698;-0.292;2024-03-17T04:06:13;24.88;;;8.85;;
76953;SDS011;65893;51.698;-0.292;2024-03-17T04:08:42;20.10;;;8.80;;
76953;SDS011;65893;51.698;-0.292;2024-03-17T04:11:09;17.63;;;7.43;;
76953;SDS011;65893;51.698;-0.292;2024-03-17T04:13:36;17.58;;;7.57;;
76953;SDS011;65893;51.698;-0.292;2024-03-17T04:16:05;18.60;;;6.93;;
76953;SDS011;65893;51.698;-0.292;2024-03-17T04:18:31;17.48;;;6.90;;
76953;SDS011;65893;51.698;-0.292;2024-03-17T04:21:01;17.33;;;6.32;;
76953;SDS011;65893;51.698;-0.292;2024-03-17T04:23:28;20.85;;;7.32;;
76953;SDS011;65893;51.698;-0.292;2024-03-17T04:25:56;19.33;;;8.70;;
76953;SDS011;65893;51.698;-0.292;2024-03-17T04:28:22;17.65;;;7.65;;
76953;SDS011;65893;51.698;-0.292;2024-03-17T04:30:48;21.00;;;8.63;;
76953;SDS011;65893;51.698;-0.292;2024-03-17T04:33:14;16.83;;;7.40;;
76953;SDS011;65893;51.698;-0.292;2024-03-17T04:35:44;24.30;;;9.20;;
76953;SDS011;65893;51.698;-0.292;2024-03-17T04:38:10;21.48;;;8.43;;
76953;SDS011;65893;51.698;-0.292;2024-03-17T04:40:42;24.50;;;9.10;;
76953;SDS011;65893;51.698;-0.292;2024-03-17T04:43:08;20.45;;;8.45;;
76953;SDS011;65893;51.698;-0.292;2024-03-17T04:45:34;22.65;;;8.82;;
76953;SDS011;65893;51.698;-0.292;2024-03-17T04:48:00;30.52;;;10.00;;
76953;SDS011;65893;51.698;-0.292;2024-03-17T04:50:27;26.08;;;9.65;;
76953;SDS011;65893;51.698;-0.292;2024-03-17T04:52:57;29.20;;;8.57;;
76953;SDS011;65893;51.698;-0.292;2024-03-17T04:55:23;23.27;;;9.45;;
76953;SDS011;65893;51.698;-0.292;2024-03-17T04:57:49;28.63;;;10.02;;
76953;SDS011;65893;51.698;-0.292;2024-03-17T05:00:15;30.70;;;10.48;;
76953;SDS011;65893;51.698;-0.292;2024-03-17T05:02:43;27.65;;;10.30;;
76953;SDS011;65893;51.698;-0.292;2024-03-17T05:05:10;27.58;;;9.90;;
76953;SDS011;65893;51.698;-0.292;2024-03-17T05:07:36;30.08;;;9.52;;
76953;SDS011;65893;51.698;-0.292;2024-03-17T05:10:03;31.55;;;9.90;;
76953;SDS011;65893;51.698;-0.292;2024-03-17T05:12:30;25.42;;;8.70;;
76953;SDS011;65893;51.698;-0.292;2024-03-17T05:14:56;27.02;;;10.00;;
76953;SDS011;65893;51.698;-0.292;2024-03-17T05:17:22;24.50;;;9.73;;
76953;SDS011;65893;51.698;-0.292;2024-03-17T05:19:48;37.58;;;10.18;;
76953;SDS011;65893;51.698;-0.292;2024-03-17T05:22:14;31.58;;;10.07;;
76953;SDS011;65893;51.698;-0.292;2024-03-17T05:24:40;31.27;;;10.48;;
76953;SDS011;65893;51.698;-0.292;2024-03-17T05:27:07;27.75;;;10.90;;
76953;SDS011;65893;51.698;-0.292;2024-03-17T05:29:33;24.63;;;9.80;;
76953;SDS011;65893;51.698;-0.292;2024-03-17T05:32:02;25.77;;;10.40;;
76953;SDS011;65893;51.698;-0.292;2024-03-17T05:34:29;19.80;;;8.77;;
76953;SDS011;65893;51.698;-0.292;2024-03-17T05:36:55;28.77;;;10.75;;
76953;SDS011;65893;51.698;-0.292;2024-03-17T05:39:21;26.33;;;8.98;;
76953;SDS011;65893;51.698;-0.292;2024-03-17T05:41:47;31.60;;;9.65;;
76953;SDS011;65893;51.698;-0.292;2024-03-17T05:44:14;30.45;;;10.38;;
76953;SDS011;65893;51.698;-0.292;2024-03-17T05:46:40;33.97;;;10.48;;
76953;SDS011;65893;51.698;-0.292;2024-03-17T05:49:08;21.58;;;9.23;;
76953;SDS011;65893;51.698;-0.292;2024-03-17T05:51:34;26.00;;;9.32;;
76953;SDS011;65893;51.698;-0.292;2024-03-17T05:54:00;29.98;;;10.75;;
76953;SDS011;65893;51.698;-0.292;2024-03-17T05:56:26;29.02;;;9.88;;
76953;SDS011;65893;51.698;-0.292;2024-03-17T05:58:52;26.38;;;9.73;;
76953;SDS011;65893;51.698;-0.292;2024-03-17T06:01:18;25.38;;;9.90;;
76953;SDS011;65893;51.698;-0.292;2024-03-17T06:03:44;28.63;;;10.63;;
76953;SDS011;65893;51.698;-0.292;2024-03-17T06:06:10;26.45;;;10.60;;
76953;SDS011;65893;51.698;-0.292;2024-03-17T06:08:37;26.75;;;10.50;;
76953;SDS011;65893;51.698;-0.292;2024-03-17T06:11:04;24.80;;;9.85;;
76953;SDS011;65893;51.698;-0.292;2024-03-17T06:13:30;27.05;;;9.70;;
76953;SDS011;65893;51.698;-0.292;2024-03-17T06:15:56;25.02;;;9.75;;
76953;SDS011;65893;51.698;-0.292;2024-03-17T06:18:26;20.38;;;9.25;;
76953;SDS011;65893;51.698;-0.292;2024-03-17T06:20:52;29.73;;;9.73;;
76953;SDS011;65893;51.698;-0.292;2024-03-17T06:23:18;29.20;;;10.02;;
76953;SDS011;65893;51.698;-0.292;2024-03-17T06:25:45;32.00;;;9.23;;
76953;SDS011;65893;51.698;-0.292;2024-03-17T06:28:12;25.17;;;9.45;;
76953;SDS011;65893;51.698;-0.292;2024-03-17T06:30:41;26.95;;;9.57;;
76953;SDS011;65893;51.698;-0.292;2024-03-17T06:33:11;26.15;;;9.23;;
76953;SDS011;65893;51.698;-0.292;2024-03-17T06:35:37;23.15;;;9.90;;
76953;SDS011;65893;51.698;-0.292;2024-03-17T06:38:04;26.70;;;9.50;;
76953;SDS011;65893;51.698;-0.292;2024-03-17T06:40:30;24.08;;;8.65;;
76953;SDS011;65893;51.698;-0.292;2024-03-17T06:42:56;23.75;;;8.30;;
76953;SDS011;65893;51.698;-0.292;2024-03-17T06:45:22;23.25;;;8.60;;
76953;SDS011;65893;51.698;-0.292;2024-03-17T06:47:50;28.00;;;7.68;;
76953;SDS011;65893;51.698;-0.292;2024-03-17T06:50:16;23.63;;;8.38;;
76953;SDS011;65893;51.698;-0.292;2024-03-17T06:52:42;22.10;;;8.25;;
76953;SDS011;65893;51.698;-0.292;2024-03-17T06:55:10;20.00;;;8.18;;
76953;SDS011;65893;51.698;-0.292;2024-03-17T06:57:41;27.77;;;7.22;;
76953;SDS011;65893;51.698;-0.292;2024-03-17T07:00:09;27.67;;;9.00;;
76953;SDS011;65893;51.698;-0.292;2024-03-17T07:02:39;30.95;;;8.10;;
76953;SDS011;65893;51.698;-0.292;2024-03-17T07:05:10;27.42;;;8.13;;
76953;SDS011;65893;51.698;-0.292;2024-03-17T07:07:40;25.35;;;8.63;;
76953;SDS011;65893;51.698;-0.292;2024-03-17T07:10:07;22.98;;;7.72;;
76953;SDS011;65893;51.698;-0.292;2024-03-17T07:12:33;24.52;;;7.85;;
76953;SDS011;65893;51.698;-0.292;2024-03-17T07:14:59;32.85;;;8.07;;
76953;SDS011;65893;51.698;-0.292;2024-03-17T07:17:26;23.50;;;7.15;;
76953;SDS011;65893;51.698;-0.292;2024-03-17T07:19:52;18.85;;;6.95;;
76953;SDS011;65893;51.698;-0.292;2024-03-17T07:22:20;30.27;;;8.00;;
76953;SDS011;65893;51.698;-0.292;2024-03-17T07:24:47;20.63;;;6.97;;
76953;SDS011;65893;51.698;-0.292;2024-03-17T07:27:17;24.00;;;7.47;;
76953;SDS011;65893;51.698;-0.292;2024-03-17T07:29:43;21.70;;;7.45;;
76953;SDS011;65893;51.698;-0.292;2024-03-17T07:32:09;16.25;;;6.40;;
76953;SDS011;65893;51.698;-0.292;2024-03-17T07:34:35;21.02;;;7.47;;
76953;SDS011;65893;51.698;-0.292;2024-03-17T07:37:01;16.63;;;6.18;;
76953;SDS011;65893;51.698;-0.292;2024-03-17T07:39:29;21.20;;;7.45;;
76953;SDS011;65893;51.698;-0.292;2024-03-17T07:41:58;19.38;;;7.18;;
76953;SDS011;65893;51.698;-0.292;2024-03-17T07:44:25;24.00;;;7.75;;
76953;SDS011;65893;51.698;-0.292;2024-03-17T07:46:54;21.40;;;7.80;;
76953;SDS011;65893;51.698;-0.292;2024-03-17T07:49:20;26.52;;;7.25;;
76953;SDS011;65893;51.698;-0.292;2024-03-17T07:51:46;24.73;;;7.97;;
76953;SDS011;65893;51.698;-0.292;2024-03-17T07:54:12;23.10;;;6.93;;
76953;SDS011;65893;51.698;-0.292;2024-03-17T07:56:41;25.98;;;7.53;;
76953;SDS011;65893;51.698;-0.292;2024-03-17T07:59:08;21.38;;;6.68;;
76953;SDS011;65893;51.698;-0.292;2024-03-17T08:01:40;22.92;;;6.10;;
76953;SDS011;65893;51.698;-0.292;2024-03-17T08:04:06;17.33;;;6.10;;
76953;SDS011;65893;51.698;-0.292;2024-03-17T08:06:33;16.58;;;5.72;;
76953;SDS011;65893;51.698;-0.292;2024-03-17T08:08:59;26.02;;;6.32;;
76953;SDS011;65893;51.698;-0.292;2024-03-17T08:11:26;17.10;;;5.60;;
76953;SDS011;65893;51.698;-0.292;2024-03-17T08:13:52;22.20;;;6.75;;
76953;SDS011;65893;51.698;-0.292;2024-03-17T08:16:19;15.52;;;5.22;;
76953;SDS011;65893;51.698;-0.292;2024-03-17T08:18:46;18.27;;;5.82;;
76953;SDS011;65893;51.698;-0.292;2024-03-17T08:21:15;15.65;;;5.40;;
76953;SDS011;65893;51.698;-0.292;2024-03-17T08:23:41;21.98;;;5.75;;
76953;SDS011;65893;51.698;-0.292;2024-03-17T08:26:11;15.32;;;5.25;;
76953;SDS011;65893;51.698;-0.292;2024-03-17T08:28:37;14.02;;;4.80;;
76953;SDS011;65893;51.698;-0.292;2024-03-17T08:31:03;16.77;;;5.65;;
76953;SDS011;65893;51.698;-0.292;2024-03-17T08:33:29;17.25;;;6.10;;
76953;SDS011;65893;51.698;-0.292;2024-03-17T08:35:56;15.05;;;4.30;;
76953;SDS011;65893;51.698;-0.292;2024-03-17T08:38:22;14.80;;;4.57;;
76953;SDS011;65893;51.698;-0.292;2024-03-17T08:40:49;10.77;;;4.00;;
76953;SDS011;65893;51.698;-0.292;2024-03-17T08:43:15;18.08;;;4.28;;
76953;SDS011;65893;51.698;-0.292;2024-03-17T08:45:41;9.93;;;3.78;;
76953;SDS011;65893;51.698;-0.292;2024-03-17T08:48:09;10.38;;;4.03;;
76953;SDS011;65893;51.698;-0.292;2024-03-17T08:50:36;12.80;;;4.47;;
76953;SDS011;65893;51.698;-0.292;2024-03-17T08:53:03;10.50;;;3.35;;
76953;SDS011;65893;51.698;-0.292;2024-03-17T08:55:30;17.17;;;4.35;;
76953;SDS011;65893;51.698;-0.292;2024-03-17T08:57:56;14.10;;;3.78;;
76953;SDS011;65893;51.698;-0.292;2024-03-17T09:00:22;12.82;;;3.60;;
76953;SDS011;65893;51.698;-0.292;2024-03-17T09:02:48;13.32;;;4.60;;
76953;SDS011;65893;51.698;-0.292;2024-03-17T09:05:16;11.60;;;4.07;;
76953;SDS011;65893;51.698;-0.292;2024-03-17T09:07:48;19.13;;;4.78;;
76953;SDS011;65893;51.698;-0.292;2024-03-17T09:10:15;10.57;;;3.58;;
76953;SDS011;65893;51.698;-0.292;2024-03-17T09:12:41;14.77;;;4.22;;
76953;SDS011;65893;51.698;-0.292;2024-03-17T09:15:07;11.48;;;3.65;;
76953;SDS011;65893;51.698;-0.292;2024-03-17T09:17:34;12.65;;;5.25;;
76953;SDS011;65893;51.698;-0.292;2024-03-17T09:20:01;14.88;;;4.00;;
76953;SDS011;65893;51.698;-0.292;2024-03-17T09:22:27;14.20;;;4.00;;
76953;SDS011;65893;51.698;-0.292;2024-03-17T09:24:55;11.52;;;3.30;;
76953;SDS011;65893;51.698;-0.292;2024-03-17T09:27:21;13.02;;;3.10;;
76953;SDS011;65893;51.698;-0.292;2024-03-17T09:29:51;10.55;;;3.33;;
76953;SDS011;65893;51.698;-0.292;2024-03-17T09:32:17;13.85;;;3.78;;
76953;SDS011;65893;51.698;-0.292;2024-03-17T09:34:48;17.17;;;3.65;;
76953;SDS011;65893;51.698;-0.292;2024-03-17T09:37:20;11.18;;;3.10;;
76953;SDS011;65893;51.698;-0.292;2024-03-17T09:39:47;11.52;;;3.13;;
76953;SDS011;65893;51.698;-0.292;2024-03-17T09:42:17;13.63;;;3.15;;
76953;SDS011;65893;51.698;-0.292;2024-03-17T09:44:47;9.55;;;2.78;;
76953;SDS011;65893;51.698;-0.292;2024-03-17T09:47:19;9.70;;;3.30;;
76953;SDS011;65893;51.698;-0.292;2024-03-17T09:49:46;11.30;;;2.83;;
76953;SDS011;65893;51.698;-0.292;2024-03-17T09:52:18;6.53;;;2.55;;
76953;SDS011;65893;51.698;-0.292;2024-03-17T09:54:44;8.25;;;2.20;;
76953;SDS011;65893;51.698;-0.292;2024-03-17T09:57:15;10.40;;;2.30;;
76953;SDS011;65893;51.698;-0.292;2024-03-17T09:59:48;5.53;;;1.83;;
76953;SDS011;65893;51.698;-0.292;2024-03-17T10:02:16;8.07;;;2.13;;
76953;SDS011;65893;51.698;-0.292;2024-03-17T10:04:49;20.55;;;2.42;;
76953;SDS011;65893;51.698;-0.292;2024-03-17T10:07:37;5.13;;;1.88;;
76953;SDS011;65893;51.698;-0.292;2024-03-17T10:10:13;5.45;;;1.75;;
76953;SDS011;65893;51.698;-0.292;2024-03-17T10:12:40;7.35;;;1.50;;
76953;SDS011;65893;51.698;-0.292;2024-03-17T10:15:08;5.47;;;1.50;;
76953;SDS011;65893;51.698;-0.292;2024-03-17T10:17:36;7.45;;;2.08;;
76953;SDS011;65893;51.698;-0.292;2024-03-17T10:25:31;5.00;;;1.50;;
76953;SDS011;65893;51.698;-0.292;2024-03-17T10:27:57;7.80;;;1.80;;
76953;SDS011;65893;51.698;-0.292;2024-03-17T10:30:24;6.40;;;1.42;;
76953;SDS011;65893;51.698;-0.292;2024-03-17T10:32:58;15.15;;;1.88;;
76953;SDS011;65893;51.698;-0.292;2024-03-17T10:35:27;9.40;;;1.67;;
76953;SDS011;65893;51.698;-0.292;2024-03-17T10:38:01;5.53;;;1.27;;
76953;SDS011;65893;51.698;-0.292;2024-03-17T10:40:29;4.32;;;1.52;;
76953;SDS011;65893;51.698;-0.292;2024-03-17T10:42:56;14.70;;;1.98;;
76953;SDS011;65893;51.698;-0.292;2024-03-17T10:45:23;3.63;;;1.00;;
76953;SDS011;65893;51.698;-0.292;2024-03-17T10:47:50;5.70;;;1.90;;
76953;SDS011;65893;51.698;-0.292;2024-03-17T10:50:17;5.03;;;1.50;;
76953;SDS011;65893;51.698;-0.292;2024-03-17T10:52:46;5.47;;;1.60;;
76953;SDS011;65893;51.698;-0.292;2024-03-17T10:55:19;4.32;;;1.45;;
76953;SDS011;65893;51.698;-0.292;2024-03-17T10:57:48;5.43;;;1.67;;
76953;SDS011;65893;51.698;-0.292;2024-03-17T11:00:16;4.55;;;1.40;;
76953;SDS011;65893;51.698;-0.292;2024-03-17T11:02:43;3.08;;;0.90;;
76953;SDS011;65893;51.698;-0.292;2024-03-17T11:05:28;4.28;;;1.10;;
76953;SDS011;65893;51.698;-0.292;2024-03-17T11:08:02;4.78;;;1.40;;
76953;SDS011;65893;51.698;-0.292;2024-03-17T11:10:32;3.33;;;0.93;;
76953;SDS011;65893;51.698;-0.292;2024-03-17T11:12:59;2.70;;;1.00;;
76953;SDS011;65893;51.698;-0.292;2024-03-17T11:17:53;4.97;;;1.00;;
76953;SDS011;65893;51.698;-0.292;2024-03-17T11:20:21;3.95;;;1.10;;
76953;SDS011;65893;51.698;-0.292;2024-03-17T11:22:49;4.70;;;1.30;;
76953;SDS011;65893;51.698;-0.292;2024-03-17T11:27:53;3.22;;;1.15;;
76953;SDS011;65893;51.698;-0.292;2024-03-17T11:33:05;4.97;;;1.02;;
76953;SDS011;65893;51.698;-0.292;2024-03-17T11:36:40;3.10;;;1.25;;
76953;SDS011;65893;51.698;-0.292;2024-03-17T11:38:53;3.05;;;0.90;;
76953;SDS011;65893;51.698;-0.292;2024-03-17T11:46:23;3.50;;;1.00;;
76953;SDS011;65893;51.698;-0.292;2024-03-17T11:48:49;1.55;;;0.85;;
76953;SDS011;65893;51.698;-0.292;2024-03-17T11:51:15;1.65;;;0.82;;
76953;SDS011;65893;51.698;-0.292;2024-03-17T11:53:41;4.15;;;1.30;;
76953;SDS011;65893;51.698;-0.292;2024-03-17T11:56:11;3.67;;;1.40;;
76953;SDS011;65893;51.698;-0.292;2024-03-17T11:58:37;3.30;;;1.13;;
76953;SDS011;65893;51.698;-0.292;2024-03-17T12:03:36;3.80;;;1.42;;
76953;SDS011;65893;51.698;-0.292;2024-03-17T12:06:04;2.13;;;1.02;;
76953;SDS011;65893;51.698;-0.292;2024-03-17T12:08:32;4.28;;;1.67;;
76953;SDS011;65893;51.698;-0.292;2024-03-17T12:10:58;3.38;;;1.10;;
76953;SDS011;65893;51.698;-0.292;2024-03-17T12:13:37;6.50;;;1.30;;
76953;SDS011;65893;51.698;-0.292;2024-03-17T12:16:11;5.75;;;1.90;;
76953;SDS011;65893;51.698;-0.292;2024-03-17T12:18:37;3.80;;;1.20;;
76953;SDS011;65893;51.698;-0.292;2024-03-17T12:21:11;6.22;;;1.52;;
76953;SDS011;65893;51.698;-0.292;2024-03-17T12:23:39;7.25;;;1.63;;
76953;SDS011;65893;51.698;-0.292;2024-03-17T12:26:05;4.85;;;1.60;;
76953;SDS011;65893;51.698;-0.292;2024-03-17T12:28:39;4.72;;;1.50;;
76953;SDS011;65893;51.698;-0.292;2024-03-17T12:31:06;2.92;;;1.20;;
76953;SDS011;65893;51.698;-0.292;2024-03-17T12:33:33;4.50;;;1.40;;
76953;SDS011;65893;51.698;-0.292;2024-03-17T12:36:08;5.97;;;1.70;;
76953;SDS011;65893;51.698;-0.292;2024-03-17T12:38:38;6.72;;;1.85;;
76953;SDS011;65893;51.698;-0.292;2024-03-17T12:41:04;6.18;;;1.75;;
76953;SDS011;65893;51.698;-0.292;2024-03-17T12:43:35;4.43;;;1.80;;
76953;SDS011;65893;51.698;-0.292;2024-03-17T12:46:03;3.88;;;1.38;;
76953;SDS011;65893;51.698;-0.292;2024-03-17T12:48:29;5.10;;;1.80;;
76953;SDS011;65893;51.698;-0.292;2024-03-17T12:50:56;5.22;;;1.55;;
76953;SDS011;65893;51.698;-0.292;2024-03-17T12:53:22;3.97;;;1.58;;
76953;SDS011;65893;51.698;-0.292;2024-03-17T12:55:54;4.88;;;1.50;;
76953;SDS011;65893;51.698;-0.292;2024-03-17T12:58:39;3.67;;;1.45;;
76953;SDS011;65893;51.698;-0.292;2024-03-17T13:01:23;3.00;;;1.13;;
76953;SDS011;65893;51.698;-0.292;2024-03-17T13:03:50;4.95;;;1.65;;
76953;SDS011;65893;51.698;-0.292;2024-03-17T13:06:23;3.03;;;1.30;;
76953;SDS011;65893;51.698;-0.292;2024-03-17T13:08:51;6.22;;;1.55;;
76953;SDS011;65893;51.698;-0.292;2024-03-17T13:11:17;3.70;;;1.58;;
76953;SDS011;65893;51.698;-0.292;2024-03-17T13:13:43;4.22;;;1.00;;
76953;SDS011;65893;51.698;-0.292;2024-03-17T13:16:09;3.50;;;1.35;;
76953;SDS011;65893;51.698;-0.292;2024-03-17T13:18:39;3.63;;;1.17;;
76953;SDS011;65893;51.698;-0.292;2024-03-17T13:21:05;5.63;;;1.85;;
76953;SDS011;65893;51.698;-0.292;2024-03-17T13:23:33;4.00;;;1.20;;
76953;SDS011;65893;51.698;-0.292;2024-03-17T13:26:01;4.53;;;1.70;;
76953;SDS011;65893;51.698;-0.292;2024-03-17T13:28:27;3.70;;;1.40;;
76953;SDS011;65893;51.698;-0.292;2024-03-17T13:30:56;4.40;;;1.30;;
76953;SDS011;65893;51.698;-0.292;2024-03-17T13:33:23;4.07;;;1.20;;
76953;SDS011;65893;51.698;-0.292;2024-03-17T13:35:49;3.63;;;1.40;;
76953;SDS011;65893;51.698;-0.292;2024-03-17T13:38:15;4.32;;;1.00;;
76953;SDS011;65893;51.698;-0.292;2024-03-17T13:40:41;2.47;;;0.93;;
76953;SDS011;65893;51.698;-0.292;2024-03-17T13:43:07;3.70;;;1.15;;
76953;SDS011;65893;51.698;-0.292;2024-03-17T13:45:38;2.88;;;1.08;;
76953;SDS011;65893;51.698;-0.292;2024-03-17T13:48:05;2.88;;;0.70;;
76953;SDS011;65893;51.698;-0.292;2024-03-17T13:50:34;2.45;;;0.77;;
76953;SDS011;65893;51.698;-0.292;2024-03-17T13:53:00;3.20;;;1.05;;
76953;SDS011;65893;51.698;-0.292;2024-03-17T13:55:28;1.38;;;0.52;;
76953;SDS011;65893;51.698;-0.292;2024-03-17T13:57:56;2.33;;;0.75;;
76953;SDS011;65893;51.698;-0.292;2024-03-17T14:00:25;1.70;;;0.70;;
76953;SDS011;65893;51.698;-0.292;2024-03-17T14:02:53;2.08;;;0.60;;
76953;SDS011;65893;51.698;-0.292;2024-03-17T14:05:20;3.10;;;0.57;;
76953;SDS011;65893;51.698;-0.292;2024-03-17T14:07:46;1.55;;;0.52;;
76953;SDS011;65893;51.698;-0.292;2024-03-17T14:10:16;3.88;;;0.73;;
76953;SDS011;65893;51.698;-0.292;2024-03-17T14:12:42;3.72;;;0.80;;
76953;SDS011;65893;51.698;-0.292;2024-03-17T14:15:09;4.15;;;0.90;;
76953;SDS011;65893;51.698;-0.292;2024-03-17T14:17:39;1.98;;;0.70;;
76953;SDS011;65893;51.698;-0.292;2024-03-17T14:20:05;3.17;;;1.08;;
76953;SDS011;65893;51.698;-0.292;2024-03-17T14:22:35;3.40;;;1.00;;
76953;SDS011;65893;51.698;-0.292;2024-03-17T14:25:01;3.45;;;0.98;;
76953;SDS011;65893;51.698;-0.292;2024-03-17T14:27:28;2.55;;;0.70;;
76953;SDS011;65893;51.698;-0.292;2024-03-17T14:29:55;2.95;;;1.05;;
76953;SDS011;65893;51.698;-0.292;2024-03-17T14:32:21;3.97;;;0.90;;
76953;SDS011;65893;51.698;-0.292;2024-03-17T14:34:47;2.15;;;0.60;;
76953;SDS011;65893;51.698;-0.292;2024-03-17T14:37:14;5.32;;;1.23;;
76953;SDS011;65893;51.698;-0.292;2024-03-17T14:39:41;2.50;;;0.70;;
76953;SDS011;65893;51.698;-0.292;2024-03-17T14:42:09;1.55;;;0.52;;
76953;SDS011;65893;51.698;-0.292;2024-03-17T14:44:36;1.25;;;0.60;;
76953;SDS011;65893;51.698;-0.292;2024-03-17T14:47:02;1.55;;;0.80;;
76953;SDS011;65893;51.698;-0.292;2024-03-17T14:49:30;2.72;;;0.80;;